sensor_id;sensor_type;location;lat;lon;timestamp;P1;durP1;ratioP1;P2;durP2;ratioP2
2748;SDS011;1382;52.142;11.618;2023-03-16T00:00:38;6.07;;;2.67;;
2748;SDS011;1382;52.142;11.618;2023-03-16T00:03:06;5.67;;;2.70;;
2748;SDS011;1382;52.142;11.618;2023-03-16T00:05:33;7.33;;;2.30;;
2748;SDS011;1382;52.142;11.618;2023-03-16T00:08:00;3.10;;;2.40;;
2748;SDS011;1382;52.142;11.618;2023-03-16T00:10:27;4.40;;;2.30;;
2748;SDS011;1382;52.142;11.618;2023-03-16T00:12:54;4.40;;;2.20;;
2748;SDS011;1382;52.142;11.618;2023-03-16T00:15:21;8.53;;;2.20;;
2748;SDS011;1382;52.142;11.618;2023-03-16T00:17:48;6.50;;;3.30;;
2748;SDS011;1382;52.142;11.618;2023-03-16T00:20:16;5.10;;;2.13;;
2748;SDS011;1382;52.142;11.618;2023-03-16T00:22:43;7.20;;;2.20;;
2748;SDS011;1382;52.142;11.618;2023-03-16T00:25:11;5.23;;;2.57;;
2748;SDS011;1382;52.142;11.618;2023-03-16T00:27:38;3.37;;;1.60;;
2748;SDS011;1382;52.142;11.618;2023-03-16T00:30:06;8.43;;;2.87;;
2748;SDS011;1382;52.142;11.618;2023-03-16T00:32:34;5.90;;;2.30;;
2748;SDS011;1382;52.142;11.618;2023-03-16T00:35:03;4.80;;;2.07;;
2748;SDS011;1382;52.142;11.618;2023-03-16T00:37:36;4.37;;;2.27;;
2748;SDS011;1382;52.142;11.618;2023-03-16T00:40:03;3.13;;;1.70;;
2748;SDS011;1382;52.142;11.618;2023-03-16T00:42:30;3.83;;;1.90;;
2748;SDS011;1382;52.142;11.618;2023-03-16T00:44:57;4.70;;;1.80;;
2748;SDS011;1382;52.142;11.618;2023-03-16T00:47:25;7.00;;;2.07;;
2748;SDS011;1382;52.142;11.618;2023-03-16T00:49:53;7.80;;;2.07;;
2748;SDS011;1382;52.142;11.618;2023-03-16T00:52:20;6.53;;;2.60;;
2748;SDS011;1382;52.142;11.618;2023-03-16T00:54:48;4.30;;;2.13;;
2748;SDS011;1382;52.142;11.618;2023-03-16T00:57:16;3.33;;;2.07;;
2748;SDS011;1382;52.142;11.618;2023-03-16T00:59:44;3.53;;;1.90;;
2748;SDS011;1382;52.142;11.618;2023-03-16T01:02:11;7.10;;;2.20;;
2748;SDS011;1382;52.142;11.618;2023-03-16T01:04:38;3.13;;;1.70;;
2748;SDS011;1382;52.142;11.618;2023-03-16T01:07:06;4.63;;;2.80;;
2748;SDS011;1382;52.142;11.618;2023-03-16T01:09:33;4.77;;;2.17;;
2748;SDS011;1382;52.142;11.618;2023-03-16T01:12:01;3.70;;;2.20;;
2748;SDS011;1382;52.142;11.618;2023-03-16T01:14:28;4.63;;;2.30;;
2748;SDS011;1382;52.142;11.618;2023-03-16T01:16:55;7.30;;;1.90;;
2748;SDS011;1382;52.142;11.618;2023-03-16T01:19:22;6.27;;;2.70;;
2748;SDS011;1382;52.142;11.618;2023-03-16T01:21:48;4.47;;;2.33;;
2748;SDS011;1382;52.142;11.618;2023-03-16T01:24:15;5.50;;;2.90;;
2748;SDS011;1382;52.142;11.618;2023-03-16T01:26:42;4.90;;;2.00;;
2748;SDS011;1382;52.142;11.618;2023-03-16T01:29:10;4.27;;;2.40;;
2748;SDS011;1382;52.142;11.618;2023-03-16T01:31:37;3.60;;;2.03;;
2748;SDS011;1382;52.142;11.618;2023-03-16T01:34:03;4.00;;;1.80;;
2748;SDS011;1382;52.142;11.618;2023-03-16T01:36:32;9.27;;;1.87;;
2748;SDS011;1382;52.142;11.618;2023-03-16T01:38:58;5.20;;;2.07;;
2748;SDS011;1382;52.142;11.618;2023-03-16T01:41:25;5.33;;;2.77;;
2748;SDS011;1382;52.142;11.618;2023-03-16T01:43:52;2.50;;;1.67;;
2748;SDS011;1382;52.142;11.618;2023-03-16T01:46:21;3.43;;;1.87;;
2748;SDS011;1382;52.142;11.618;2023-03-16T01:49:01;5.40;;;1.77;;
2748;SDS011;1382;52.142;11.618;2023-03-16T01:51:33;7.60;;;2.43;;
2748;SDS011;1382;52.142;11.618;2023-03-16T01:54:03;4.90;;;2.00;;
2748;SDS011;1382;52.142;11.618;2023-03-16T01:56:35;4.27;;;1.80;;
2748;SDS011;1382;52.142;11.618;2023-03-16T01:59:06;4.53;;;2.27;;
2748;SDS011;1382;52.142;11.618;2023-03-16T02:01:37;5.03;;;2.10;;
2748;SDS011;1382;52.142;11.618;2023-03-16T02:04:07;9.73;;;2.43;;
2748;SDS011;1382;52.142;11.618;2023-03-16T02:06:42;1.80;;;1.40;;
2748;SDS011;1382;52.142;11.618;2023-03-16T02:09:09;8.23;;;1.90;;
2748;SDS011;1382;52.142;11.618;2023-03-16T02:11:36;6.33;;;2.20;;
2748;SDS011;1382;52.142;11.618;2023-03-16T02:14:05;6.27;;;2.10;;
2748;SDS011;1382;52.142;11.618;2023-03-16T02:16:34;5.13;;;1.93;;
2748;SDS011;1382;52.142;11.618;2023-03-16T02:19:03;4.87;;;2.10;;
2748;SDS011;1382;52.142;11.618;2023-03-16T02:21:38;6.30;;;2.17;;
2748;SDS011;1382;52.142;11.618;2023-03-16T02:24:14;4.40;;;1.90;;
2748;SDS011;1382;52.142;11.618;2023-03-16T02:26:41;2.60;;;1.93;;
2748;SDS011;1382;52.142;11.618;2023-03-16T02:29:15;3.30;;;1.90;;
2748;SDS011;1382;52.142;11.618;2023-03-16T02:31:51;3.30;;;1.90;;
2748;SDS011;1382;52.142;11.618;2023-03-16T02:34:19;3.57;;;1.97;;
2748;SDS011;1382;52.142;11.618;2023-03-16T02:36:46;2.70;;;1.60;;
2748;SDS011;1382;52.142;11.618;2023-03-16T02:39:14;5.80;;;2.10;;
2748;SDS011;1382;52.142;11.618;2023-03-16T02:41:41;3.57;;;1.70;;
2748;SDS011;1382;52.142;11.618;2023-03-16T02:44:08;6.60;;;1.93;;
2748;SDS011;1382;52.142;11.618;2023-03-16T02:46:39;2.13;;;1.80;;
2748;SDS011;1382;52.142;11.618;2023-03-16T02:49:10;2.43;;;1.77;;
2748;SDS011;1382;52.142;11.618;2023-03-16T02:51:40;5.70;;;2.00;;
2748;SDS011;1382;52.142;11.618;2023-03-16T02:54:07;6.03;;;1.93;;
2748;SDS011;1382;52.142;11.618;2023-03-16T02:56:34;3.50;;;1.63;;
2748;SDS011;1382;52.142;11.618;2023-03-16T02:59:01;4.30;;;1.73;;
2748;SDS011;1382;52.142;11.618;2023-03-16T03:01:27;1.93;;;1.40;;
2748;SDS011;1382;52.142;11.618;2023-03-16T03:03:54;4.87;;;1.50;;
2748;SDS011;1382;52.142;11.618;2023-03-16T03:06:22;4.30;;;1.93;;
2748;SDS011;1382;52.142;11.618;2023-03-16T03:08:49;4.07;;;2.00;;
2748;SDS011;1382;52.142;11.618;2023-03-16T03:11:17;4.90;;;2.00;;
2748;SDS011;1382;52.142;11.618;2023-03-16T03:13:43;4.40;;;2.00;;
2748;SDS011;1382;52.142;11.618;2023-03-16T03:16:10;5.27;;;2.30;;
2748;SDS011;1382;52.142;11.618;2023-03-16T03:18:37;4.87;;;2.30;;
2748;SDS011;1382;52.142;11.618;2023-03-16T03:21:04;2.37;;;1.63;;
2748;SDS011;1382;52.142;11.618;2023-03-16T03:23:33;5.53;;;1.80;;
2748;SDS011;1382;52.142;11.618;2023-03-16T03:26:00;4.97;;;1.80;;
2748;SDS011;1382;52.142;11.618;2023-03-16T03:28:27;3.70;;;2.07;;
2748;SDS011;1382;52.142;11.618;2023-03-16T03:30:53;3.70;;;1.20;;
2748;SDS011;1382;52.142;11.618;2023-03-16T03:33:20;4.47;;;1.50;;
2748;SDS011;1382;52.142;11.618;2023-03-16T03:35:52;3.83;;;1.60;;
2748;SDS011;1382;52.142;11.618;2023-03-16T03:38:19;4.37;;;1.73;;
2748;SDS011;1382;52.142;11.618;2023-03-16T03:40:48;5.57;;;1.80;;
2748;SDS011;1382;52.142;11.618;2023-03-16T03:43:15;4.17;;;1.90;;
2748;SDS011;1382;52.142;11.618;2023-03-16T03:45:42;6.87;;;1.80;;
2748;SDS011;1382;52.142;11.618;2023-03-16T03:48:09;4.60;;;1.30;;
2748;SDS011;1382;52.142;11.618;2023-03-16T03:50:36;4.47;;;2.33;;
2748;SDS011;1382;52.142;11.618;2023-03-16T03:53:02;3.30;;;2.07;;
2748;SDS011;1382;52.142;11.618;2023-03-16T03:55:29;6.27;;;2.10;;
2748;SDS011;1382;52.142;11.618;2023-03-16T03:57:57;5.07;;;2.00;;
2748;SDS011;1382;52.142;11.618;2023-03-16T04:00:24;3.20;;;2.00;;
2748;SDS011;1382;52.142;11.618;2023-03-16T04:02:51;5.50;;;2.00;;
2748;SDS011;1382;52.142;11.618;2023-03-16T04:05:18;1.40;;;0.80;;
2748;SDS011;1382;52.142;11.618;2023-03-16T04:07:45;3.33;;;1.30;;
2748;SDS011;1382;52.142;11.618;2023-03-16T04:10:11;5.77;;;1.60;;
2748;SDS011;1382;52.142;11.618;2023-03-16T04:12:38;1.90;;;0.80;;
2748;SDS011;1382;52.142;11.618;2023-03-16T04:15:07;3.53;;;1.70;;
2748;SDS011;1382;52.142;11.618;2023-03-16T04:17:35;3.10;;;0.97;;
2748;SDS011;1382;52.142;11.618;2023-03-16T04:20:01;3.83;;;1.30;;
2748;SDS011;1382;52.142;11.618;2023-03-16T04:22:28;4.27;;;1.50;;
2748;SDS011;1382;52.142;11.618;2023-03-16T04:24:55;5.03;;;1.40;;
2748;SDS011;1382;52.142;11.618;2023-03-16T04:27:22;1.53;;;1.10;;
2748;SDS011;1382;52.142;11.618;2023-03-16T04:29:48;2.27;;;1.60;;
2748;SDS011;1382;52.142;11.618;2023-03-16T04:32:16;3.67;;;1.60;;
2748;SDS011;1382;52.142;11.618;2023-03-16T04:34:43;4.90;;;1.87;;
2748;SDS011;1382;52.142;11.618;2023-03-16T04:37:10;2.87;;;1.53;;
2748;SDS011;1382;52.142;11.618;2023-03-16T04:39:36;2.30;;;1.33;;
2748;SDS011;1382;52.142;11.618;2023-03-16T04:42:03;4.33;;;1.60;;
2748;SDS011;1382;52.142;11.618;2023-03-16T04:44:30;2.07;;;1.30;;
2748;SDS011;1382;52.142;11.618;2023-03-16T04:46:57;10.10;;;1.50;;
2748;SDS011;1382;52.142;11.618;2023-03-16T04:49:25;5.40;;;1.43;;
2748;SDS011;1382;52.142;11.618;2023-03-16T04:51:52;4.10;;;1.73;;
2748;SDS011;1382;52.142;11.618;2023-03-16T04:54:18;8.03;;;1.90;;
2748;SDS011;1382;52.142;11.618;2023-03-16T04:56:45;5.70;;;1.40;;
2748;SDS011;1382;52.142;11.618;2023-03-16T04:59:12;3.03;;;1.30;;
2748;SDS011;1382;52.142;11.618;2023-03-16T05:01:38;2.90;;;1.50;;
2748;SDS011;1382;52.142;11.618;2023-03-16T05:04:05;3.50;;;1.53;;
2748;SDS011;1382;52.142;11.618;2023-03-16T05:06:33;3.53;;;1.90;;
2748;SDS011;1382;52.142;11.618;2023-03-16T05:09:00;3.03;;;1.40;;
2748;SDS011;1382;52.142;11.618;2023-03-16T05:11:27;2.90;;;1.43;;
2748;SDS011;1382;52.142;11.618;2023-03-16T05:13:54;1.43;;;1.10;;
2748;SDS011;1382;52.142;11.618;2023-03-16T05:16:20;3.67;;;1.57;;
2748;SDS011;1382;52.142;11.618;2023-03-16T05:18:47;7.87;;;1.60;;
2748;SDS011;1382;52.142;11.618;2023-03-16T05:21:14;1.70;;;1.30;;
2748;SDS011;1382;52.142;11.618;2023-03-16T05:23:42;2.37;;;1.47;;
2748;SDS011;1382;52.142;11.618;2023-03-16T05:26:09;2.67;;;1.80;;
2748;SDS011;1382;52.142;11.618;2023-03-16T05:28:35;3.90;;;1.60;;
2748;SDS011;1382;52.142;11.618;2023-03-16T05:31:02;2.87;;;1.50;;
2748;SDS011;1382;52.142;11.618;2023-03-16T05:33:29;5.00;;;1.50;;
2748;SDS011;1382;52.142;11.618;2023-03-16T05:35:55;3.17;;;1.37;;
2748;SDS011;1382;52.142;11.618;2023-03-16T05:38:22;6.63;;;1.47;;
2748;SDS011;1382;52.142;11.618;2023-03-16T05:40:50;4.77;;;1.93;;
2748;SDS011;1382;52.142;11.618;2023-03-16T05:43:17;5.33;;;1.77;;
2748;SDS011;1382;52.142;11.618;2023-03-16T05:45:44;2.63;;;1.37;;
2748;SDS011;1382;52.142;11.618;2023-03-16T05:48:11;4.07;;;2.17;;
2748;SDS011;1382;52.142;11.618;2023-03-16T05:50:39;3.57;;;1.50;;
2748;SDS011;1382;52.142;11.618;2023-03-16T05:53:06;5.40;;;1.77;;
2748;SDS011;1382;52.142;11.618;2023-03-16T05:55:32;3.60;;;1.70;;
2748;SDS011;1382;52.142;11.618;2023-03-16T05:58:00;4.10;;;2.00;;
2748;SDS011;1382;52.142;11.618;2023-03-16T06:00:30;6.60;;;2.97;;
2748;SDS011;1382;52.142;11.618;2023-03-16T06:02:57;4.40;;;1.97;;
2748;SDS011;1382;52.142;11.618;2023-03-16T06:05:24;3.95;;;1.98;;
2748;SDS011;1382;52.142;11.618;2023-03-16T06:07:51;3.47;;;1.83;;
2748;SDS011;1382;52.142;11.618;2023-03-16T06:10:17;4.57;;;1.77;;
2748;SDS011;1382;52.142;11.618;2023-03-16T06:12:44;8.55;;;1.70;;
2748;SDS011;1382;52.142;11.618;2023-03-16T06:15:12;3.40;;;2.27;;
2748;SDS011;1382;52.142;11.618;2023-03-16T06:17:39;4.28;;;2.50;;
2748;SDS011;1382;52.142;11.618;2023-03-16T06:20:07;4.40;;;2.03;;
2748;SDS011;1382;52.142;11.618;2023-03-16T06:22:35;4.33;;;2.07;;
2748;SDS011;1382;52.142;11.618;2023-03-16T06:25:02;8.80;;;2.37;;
2748;SDS011;1382;52.142;11.618;2023-03-16T06:27:29;5.50;;;2.20;;
2748;SDS011;1382;52.142;11.618;2023-03-16T06:29:56;7.80;;;2.00;;
2748;SDS011;1382;52.142;11.618;2023-03-16T06:32:24;3.60;;;2.30;;
2748;SDS011;1382;52.142;11.618;2023-03-16T06:34:51;6.70;;;2.63;;
2748;SDS011;1382;52.142;11.618;2023-03-16T06:37:18;3.00;;;1.87;;
2748;SDS011;1382;52.142;11.618;2023-03-16T06:39:44;11.73;;;2.17;;
2748;SDS011;1382;52.142;11.618;2023-03-16T06:42:11;6.40;;;2.53;;
2748;SDS011;1382;52.142;11.618;2023-03-16T06:44:38;13.87;;;2.97;;
2748;SDS011;1382;52.142;11.618;2023-03-16T06:47:05;8.03;;;2.40;;
2748;SDS011;1382;52.142;11.618;2023-03-16T06:49:34;4.37;;;1.93;;
2748;SDS011;1382;52.142;11.618;2023-03-16T06:52:00;6.07;;;2.50;;
2748;SDS011;1382;52.142;11.618;2023-03-16T06:54:27;6.10;;;2.50;;
2748;SDS011;1382;52.142;11.618;2023-03-16T06:56:54;7.57;;;2.70;;
2748;SDS011;1382;52.142;11.618;2023-03-16T06:59:21;5.03;;;2.87;;
2748;SDS011;1382;52.142;11.618;2023-03-16T07:01:48;4.77;;;2.27;;
2748;SDS011;1382;52.142;11.618;2023-03-16T07:04:14;4.47;;;2.77;;
2748;SDS011;1382;52.142;11.618;2023-03-16T07:06:43;8.13;;;2.60;;
2748;SDS011;1382;52.142;11.618;2023-03-16T07:09:10;9.63;;;2.83;;
2748;SDS011;1382;52.142;11.618;2023-03-16T07:11:36;10.67;;;2.80;;
2748;SDS011;1382;52.142;11.618;2023-03-16T07:14:03;6.27;;;3.20;;
2748;SDS011;1382;52.142;11.618;2023-03-16T07:16:30;5.07;;;1.80;;
2748;SDS011;1382;52.142;11.618;2023-03-16T07:18:57;4.50;;;2.50;;
2748;SDS011;1382;52.142;11.618;2023-03-16T07:21:24;5.33;;;2.20;;
2748;SDS011;1382;52.142;11.618;2023-03-16T07:23:52;5.90;;;2.70;;
2748;SDS011;1382;52.142;11.618;2023-03-16T07:26:19;3.53;;;2.30;;
2748;SDS011;1382;52.142;11.618;2023-03-16T07:28:45;5.57;;;2.40;;
2748;SDS011;1382;52.142;11.618;2023-03-16T07:31:12;3.13;;;1.90;;
2748;SDS011;1382;52.142;11.618;2023-03-16T07:33:39;7.40;;;3.27;;
2748;SDS011;1382;52.142;11.618;2023-03-16T07:36:07;15.10;;;3.03;;
2748;SDS011;1382;52.142;11.618;2023-03-16T07:38:34;3.73;;;1.60;;
2748;SDS011;1382;52.142;11.618;2023-03-16T07:41:02;5.13;;;2.00;;
2748;SDS011;1382;52.142;11.618;2023-03-16T07:43:29;7.20;;;2.87;;
2748;SDS011;1382;52.142;11.618;2023-03-16T07:45:56;3.70;;;2.37;;
2748;SDS011;1382;52.142;11.618;2023-03-16T07:48:24;7.83;;;1.60;;
2748;SDS011;1382;52.142;11.618;2023-03-16T07:50:50;6.27;;;3.30;;
2748;SDS011;1382;52.142;11.618;2023-03-16T07:53:17;9.60;;;2.50;;
2748;SDS011;1382;52.142;11.618;2023-03-16T07:55:44;8.17;;;3.00;;
2748;SDS011;1382;52.142;11.618;2023-03-16T07:58:13;4.77;;;2.00;;
2748;SDS011;1382;52.142;11.618;2023-03-16T08:00:39;4.20;;;1.90;;
2748;SDS011;1382;52.142;11.618;2023-03-16T08:03:06;5.30;;;2.40;;
2748;SDS011;1382;52.142;11.618;2023-03-16T08:05:33;7.00;;;2.53;;
2748;SDS011;1382;52.142;11.618;2023-03-16T08:08:00;4.60;;;2.33;;
2748;SDS011;1382;52.142;11.618;2023-03-16T08:10:27;4.77;;;2.80;;
2748;SDS011;1382;52.142;11.618;2023-03-16T08:12:55;10.80;;;2.90;;
2748;SDS011;1382;52.142;11.618;2023-03-16T08:15:24;4.40;;;2.67;;
2748;SDS011;1382;52.142;11.618;2023-03-16T08:17:50;8.37;;;2.67;;
2748;SDS011;1382;52.142;11.618;2023-03-16T08:20:17;4.47;;;2.23;;
2748;SDS011;1382;52.142;11.618;2023-03-16T08:22:44;5.10;;;2.43;;
2748;SDS011;1382;52.142;11.618;2023-03-16T08:25:12;2.13;;;1.90;;
2748;SDS011;1382;52.142;11.618;2023-03-16T08:27:40;7.03;;;3.30;;
2748;SDS011;1382;52.142;11.618;2023-03-16T08:30:07;5.00;;;2.40;;
2748;SDS011;1382;52.142;11.618;2023-03-16T08:32:38;8.03;;;3.00;;
2748;SDS011;1382;52.142;11.618;2023-03-16T08:35:06;6.70;;;2.90;;
2748;SDS011;1382;52.142;11.618;2023-03-16T08:37:35;6.10;;;2.30;;
2748;SDS011;1382;52.142;11.618;2023-03-16T08:40:02;8.10;;;3.60;;
2748;SDS011;1382;52.142;11.618;2023-03-16T08:42:31;5.20;;;3.00;;
2748;SDS011;1382;52.142;11.618;2023-03-16T08:44:58;5.63;;;2.87;;
2748;SDS011;1382;52.142;11.618;2023-03-16T08:47:24;12.23;;;3.90;;
2748;SDS011;1382;52.142;11.618;2023-03-16T08:49:52;8.17;;;2.20;;
2748;SDS011;1382;52.142;11.618;2023-03-16T08:52:19;3.90;;;2.37;;
2748;SDS011;1382;52.142;11.618;2023-03-16T08:54:46;5.37;;;2.53;;
2748;SDS011;1382;52.142;11.618;2023-03-16T08:57:28;11.13;;;3.87;;
2748;SDS011;1382;52.142;11.618;2023-03-16T08:59:55;7.57;;;3.20;;
2748;SDS011;1382;52.142;11.618;2023-03-16T09:02:22;4.90;;;2.40;;
2748;SDS011;1382;52.142;11.618;2023-03-16T09:04:49;3.13;;;1.97;;
2748;SDS011;1382;52.142;11.618;2023-03-16T09:07:17;1.63;;;1.50;;
2748;SDS011;1382;52.142;11.618;2023-03-16T09:09:44;6.10;;;1.97;;
2748;SDS011;1382;52.142;11.618;2023-03-16T09:12:11;5.33;;;2.00;;
2748;SDS011;1382;52.142;11.618;2023-03-16T09:14:38;4.10;;;1.20;;
2748;SDS011;1382;52.142;11.618;2023-03-16T09:17:05;5.03;;;1.93;;
2748;SDS011;1382;52.142;11.618;2023-03-16T09:19:35;3.40;;;1.60;;
2748;SDS011;1382;52.142;11.618;2023-03-16T09:22:21;5.50;;;1.90;;
2748;SDS011;1382;52.142;11.618;2023-03-16T09:24:49;6.20;;;2.93;;
2748;SDS011;1382;52.142;11.618;2023-03-16T09:27:16;7.87;;;2.10;;
2748;SDS011;1382;52.142;11.618;2023-03-16T09:29:44;5.37;;;2.30;;
2748;SDS011;1382;52.142;11.618;2023-03-16T09:32:11;5.90;;;1.80;;
2748;SDS011;1382;52.142;11.618;2023-03-16T09:34:38;8.80;;;2.00;;
2748;SDS011;1382;52.142;11.618;2023-03-16T09:37:06;5.47;;;1.10;;
2748;SDS011;1382;52.142;11.618;2023-03-16T09:39:35;3.70;;;1.57;;
2748;SDS011;1382;52.142;11.618;2023-03-16T09:42:03;6.43;;;1.53;;
2748;SDS011;1382;52.142;11.618;2023-03-16T09:44:42;3.67;;;1.13;;
2748;SDS011;1382;52.142;11.618;2023-03-16T09:47:16;3.93;;;1.30;;
2748;SDS011;1382;52.142;11.618;2023-03-16T09:49:49;4.63;;;1.70;;
2748;SDS011;1382;52.142;11.618;2023-03-16T09:52:19;7.60;;;1.50;;
2748;SDS011;1382;52.142;11.618;2023-03-16T09:54:56;3.13;;;1.20;;
2748;SDS011;1382;52.142;11.618;2023-03-16T09:57:27;2.60;;;1.50;;
2748;SDS011;1382;52.142;11.618;2023-03-16T09:59:57;8.13;;;2.00;;
2748;SDS011;1382;52.142;11.618;2023-03-16T10:02:31;4.80;;;1.60;;
2748;SDS011;1382;52.142;11.618;2023-03-16T10:05:10;8.97;;;1.90;;
2748;SDS011;1382;52.142;11.618;2023-03-16T10:07:41;5.00;;;1.77;;
2748;SDS011;1382;52.142;11.618;2023-03-16T10:10:19;5.20;;;1.50;;
2748;SDS011;1382;52.142;11.618;2023-03-16T10:12:56;3.07;;;1.47;;
2748;SDS011;1382;52.142;11.618;2023-03-16T10:15:26;3.03;;;1.43;;
2748;SDS011;1382;52.142;11.618;2023-03-16T10:17:58;3.53;;;1.60;;
2748;SDS011;1382;52.142;11.618;2023-03-16T10:20:30;5.30;;;1.70;;
2748;SDS011;1382;52.142;11.618;2023-03-16T10:22:59;2.50;;;1.17;;
2748;SDS011;1382;52.142;11.618;2023-03-16T10:25:41;4.53;;;2.17;;
2748;SDS011;1382;52.142;11.618;2023-03-16T10:28:11;7.20;;;2.10;;
2748;SDS011;1382;52.142;11.618;2023-03-16T10:30:41;3.50;;;1.87;;
2748;SDS011;1382;52.142;11.618;2023-03-16T10:33:12;3.40;;;1.30;;
2748;SDS011;1382;52.142;11.618;2023-03-16T10:35:45;6.60;;;1.53;;
2748;SDS011;1382;52.142;11.618;2023-03-16T10:38:25;6.40;;;1.70;;
2748;SDS011;1382;52.142;11.618;2023-03-16T10:40:55;5.97;;;1.90;;
2748;SDS011;1382;52.142;11.618;2023-03-16T10:43:22;5.87;;;1.30;;
2748;SDS011;1382;52.142;11.618;2023-03-16T10:45:49;5.33;;;1.33;;
2748;SDS011;1382;52.142;11.618;2023-03-16T10:48:17;3.10;;;1.30;;
2748;SDS011;1382;52.142;11.618;2023-03-16T10:50:47;3.80;;;1.10;;
2748;SDS011;1382;52.142;11.618;2023-03-16T10:53:18;5.60;;;1.77;;
2748;SDS011;1382;52.142;11.618;2023-03-16T10:55:49;2.80;;;0.97;;
2748;SDS011;1382;52.142;11.618;2023-03-16T10:58:23;3.40;;;0.93;;
2748;SDS011;1382;52.142;11.618;2023-03-16T11:00:56;4.40;;;1.33;;
2748;SDS011;1382;52.142;11.618;2023-03-16T11:03:24;2.30;;;1.27;;
2748;SDS011;1382;52.142;11.618;2023-03-16T11:06:05;3.70;;;1.23;;
2748;SDS011;1382;52.142;11.618;2023-03-16T11:08:34;1.90;;;1.10;;
2748;SDS011;1382;52.142;11.618;2023-03-16T11:11:07;7.10;;;1.57;;
2748;SDS011;1382;52.142;11.618;2023-03-16T11:13:37;2.83;;;1.03;;
2748;SDS011;1382;52.142;11.618;2023-03-16T11:16:16;2.00;;;1.23;;
2748;SDS011;1382;52.142;11.618;2023-03-16T11:18:49;2.80;;;0.80;;
2748;SDS011;1382;52.142;11.618;2023-03-16T11:21:21;6.70;;;1.40;;
2748;SDS011;1382;52.142;11.618;2023-03-16T11:23:55;6.33;;;1.40;;
2748;SDS011;1382;52.142;11.618;2023-03-16T11:26:25;6.20;;;1.50;;
2748;SDS011;1382;52.142;11.618;2023-03-16T11:32:19;3.63;;;2.10;;
2748;SDS011;1382;52.142;11.618;2023-03-16T11:34:49;3.07;;;1.80;;
2748;SDS011;1382;52.142;11.618;2023-03-16T11:37:19;2.17;;;1.27;;
2748;SDS011;1382;52.142;11.618;2023-03-16T11:40:00;4.70;;;1.20;;
2748;SDS011;1382;52.142;11.618;2023-03-16T11:42:32;4.40;;;1.53;;
2748;SDS011;1382;52.142;11.618;2023-03-16T11:45:11;4.93;;;1.80;;
2748;SDS011;1382;52.142;11.618;2023-03-16T11:47:56;4.27;;;1.40;;
2748;SDS011;1382;52.142;11.618;2023-03-16T11:50:33;2.63;;;1.10;;
2748;SDS011;1382;52.142;11.618;2023-03-16T11:53:11;3.13;;;1.43;;
2748;SDS011;1382;52.142;11.618;2023-03-16T11:55:52;2.40;;;1.47;;
2748;SDS011;1382;52.142;11.618;2023-03-16T11:58:35;10.20;;;1.67;;
2748;SDS011;1382;52.142;11.618;2023-03-16T12:01:16;2.07;;;1.00;;
2748;SDS011;1382;52.142;11.618;2023-03-16T12:04:02;2.13;;;0.87;;
2748;SDS011;1382;52.142;11.618;2023-03-16T12:09:36;5.13;;;1.60;;
2748;SDS011;1382;52.142;11.618;2023-03-16T12:12:17;2.63;;;0.83;;
2748;SDS011;1382;52.142;11.618;2023-03-16T12:15:05;2.70;;;1.33;;
2748;SDS011;1382;52.142;11.618;2023-03-16T12:17:42;2.00;;;0.80;;
2748;SDS011;1382;52.142;11.618;2023-03-16T12:23:41;4.23;;;1.27;;
2748;SDS011;1382;52.142;11.618;2023-03-16T12:26:27;6.90;;;1.33;;
2748;SDS011;1382;52.142;11.618;2023-03-16T12:28:57;4.43;;;1.40;;
2748;SDS011;1382;52.142;11.618;2023-03-16T12:31:27;5.20;;;1.50;;
2748;SDS011;1382;52.142;11.618;2023-03-16T12:34:10;4.87;;;0.90;;
2748;SDS011;1382;52.142;11.618;2023-03-16T12:39:44;1.70;;;1.00;;
2748;SDS011;1382;52.142;11.618;2023-03-16T12:42:25;2.10;;;1.23;;
2748;SDS011;1382;52.142;11.618;2023-03-16T12:45:06;2.30;;;0.70;;
2748;SDS011;1382;52.142;11.618;2023-03-16T12:47:42;2.80;;;1.07;;
2748;SDS011;1382;52.142;11.618;2023-03-16T12:50:17;6.80;;;1.03;;
2748;SDS011;1382;52.142;11.618;2023-03-16T12:52:45;2.77;;;1.13;;
2748;SDS011;1382;52.142;11.618;2023-03-16T12:55:16;3.33;;;1.00;;
2748;SDS011;1382;52.142;11.618;2023-03-16T12:57:45;2.73;;;1.40;;
2748;SDS011;1382;52.142;11.618;2023-03-16T13:00:15;4.27;;;1.27;;
2748;SDS011;1382;52.142;11.618;2023-03-16T13:02:43;2.80;;;1.10;;
2748;SDS011;1382;52.142;11.618;2023-03-16T13:05:15;1.13;;;0.67;;
2748;SDS011;1382;52.142;11.618;2023-03-16T13:08:02;2.00;;;0.80;;
2748;SDS011;1382;52.142;11.618;2023-03-16T13:10:32;1.73;;;0.83;;
2748;SDS011;1382;52.142;11.618;2023-03-16T13:13:06;5.30;;;1.53;;
2748;SDS011;1382;52.142;11.618;2023-03-16T13:15:34;1.07;;;0.87;;
2748;SDS011;1382;52.142;11.618;2023-03-16T13:18:05;2.70;;;0.90;;
2748;SDS011;1382;52.142;11.618;2023-03-16T13:20:50;5.10;;;1.03;;
2748;SDS011;1382;52.142;11.618;2023-03-16T13:23:20;2.30;;;0.87;;
2748;SDS011;1382;52.142;11.618;2023-03-16T13:26:09;2.70;;;1.17;;
2748;SDS011;1382;52.142;11.618;2023-03-16T13:28:40;2.30;;;1.33;;
2748;SDS011;1382;52.142;11.618;2023-03-16T13:31:18;4.30;;;1.53;;
2748;SDS011;1382;52.142;11.618;2023-03-16T13:33:49;2.80;;;0.90;;
2748;SDS011;1382;52.142;11.618;2023-03-16T13:36:19;3.90;;;1.70;;
2748;SDS011;1382;52.142;11.618;2023-03-16T13:38:54;3.87;;;1.40;;
2748;SDS011;1382;52.142;11.618;2023-03-16T13:41:23;1.90;;;1.43;;
2748;SDS011;1382;52.142;11.618;2023-03-16T13:43:49;2.50;;;1.00;;
2748;SDS011;1382;52.142;11.618;2023-03-16T13:46:16;8.87;;;1.73;;
2748;SDS011;1382;52.142;11.618;2023-03-16T13:48:45;4.23;;;1.40;;
2748;SDS011;1382;52.142;11.618;2023-03-16T13:51:13;2.33;;;1.50;;
2748;SDS011;1382;52.142;11.618;2023-03-16T13:53:41;1.33;;;1.10;;
2748;SDS011;1382;52.142;11.618;2023-03-16T13:56:11;2.87;;;0.93;;
2748;SDS011;1382;52.142;11.618;2023-03-16T13:58:42;5.10;;;1.80;;
2748;SDS011;1382;52.142;11.618;2023-03-16T14:01:13;6.53;;;1.60;;
2748;SDS011;1382;52.142;11.618;2023-03-16T14:03:48;5.23;;;1.73;;
2748;SDS011;1382;52.142;11.618;2023-03-16T14:06:17;8.20;;;2.87;;
2748;SDS011;1382;52.142;11.618;2023-03-16T14:08:48;2.47;;;1.43;;
2748;SDS011;1382;52.142;11.618;2023-03-16T14:11:17;8.47;;;2.10;;
2748;SDS011;1382;52.142;11.618;2023-03-16T14:13:50;6.87;;;1.50;;
2748;SDS011;1382;52.142;11.618;2023-03-16T14:16:18;4.30;;;2.00;;
2748;SDS011;1382;52.142;11.618;2023-03-16T14:18:46;4.50;;;2.10;;
2748;SDS011;1382;52.142;11.618;2023-03-16T14:21:15;7.70;;;2.87;;
2748;SDS011;1382;52.142;11.618;2023-03-16T14:23:45;5.37;;;1.40;;
2748;SDS011;1382;52.142;11.618;2023-03-16T14:26:17;8.87;;;3.10;;
2748;SDS011;1382;52.142;11.618;2023-03-16T14:28:53;3.47;;;2.50;;
2748;SDS011;1382;52.142;11.618;2023-03-16T14:31:29;5.23;;;2.23;;
2748;SDS011;1382;52.142;11.618;2023-03-16T14:33:59;5.00;;;2.13;;
2748;SDS011;1382;52.142;11.618;2023-03-16T14:36:32;4.20;;;2.07;;
2748;SDS011;1382;52.142;11.618;2023-03-16T14:39:08;6.17;;;2.10;;
2748;SDS011;1382;52.142;11.618;2023-03-16T14:41:36;2.87;;;1.73;;
2748;SDS011;1382;52.142;11.618;2023-03-16T14:44:10;4.47;;;2.27;;
2748;SDS011;1382;52.142;11.618;2023-03-16T14:46:44;2.50;;;1.73;;
2748;SDS011;1382;52.142;11.618;2023-03-16T14:49:16;3.33;;;1.70;;
2748;SDS011;1382;52.142;11.618;2023-03-16T14:51:46;5.00;;;1.70;;
2748;SDS011;1382;52.142;11.618;2023-03-16T14:54:14;6.13;;;2.60;;
2748;SDS011;1382;52.142;11.618;2023-03-16T14:56:42;4.83;;;1.60;;
2748;SDS011;1382;52.142;11.618;2023-03-16T14:59:14;4.50;;;1.60;;
2748;SDS011;1382;52.142;11.618;2023-03-16T15:01:41;3.93;;;1.67;;
2748;SDS011;1382;52.142;11.618;2023-03-16T15:04:09;10.67;;;2.97;;
2748;SDS011;1382;52.142;11.618;2023-03-16T15:06:39;2.37;;;1.90;;
2748;SDS011;1382;52.142;11.618;2023-03-16T15:09:05;3.17;;;1.97;;
2748;SDS011;1382;52.142;11.618;2023-03-16T15:11:36;3.27;;;1.60;;
2748;SDS011;1382;52.142;11.618;2023-03-16T15:14:06;2.90;;;1.47;;
2748;SDS011;1382;52.142;11.618;2023-03-16T15:16:37;2.93;;;1.50;;
2748;SDS011;1382;52.142;11.618;2023-03-16T15:19:04;2.93;;;1.30;;
2748;SDS011;1382;52.142;11.618;2023-03-16T15:21:32;6.87;;;1.57;;
2748;SDS011;1382;52.142;11.618;2023-03-16T15:23:59;2.63;;;1.97;;
2748;SDS011;1382;52.142;11.618;2023-03-16T15:26:26;6.93;;;2.37;;